Time;durP1;ratioP1;P1;durP2;ratioP2;P2;SDS_P1;SDS_P2;PMS_P1;PMS_P2;Temp;Humidity;BMP_temperature;BMP_pressure;BME280_temperature;BME280_humidity;BME280_pressure;Samples;Min_cycle;Max_cycle;Signal;HPM_P1;HPM_P2
2022/10/03 00:00:37;;;;;;;;;;;11.40;99.90;;;;;;5006906;28;20396;-79
2022/10/03 00:03:33;;;;;;;;;;;11.50;99.90;;;;;;5003741;28;20034;-80
2022/10/03 00:06:08;;;;;;;;;;;11.50;99.90;;;;;;4991552;28;19928;-80
2022/10/03 00:08:43;;;;;;;;;;;11.50;99.90;;;;;;5005741;28;20264;-79
2022/10/03 00:11:12;;;;;;;;;;;11.50;99.90;;;;;;5004081;28;20276;-80
2022/10/03 00:13:45;;;;;;;;;;;11.50;99.90;;;;;;5005522;28;20003;-80
2022/10/03 00:16:20;;;;;;;;;;;11.50;99.90;;;;;;4990597;28;19925;-82
2022/10/03 00:18:46;;;;;;;;;;;11.50;99.90;;;;;;4990294;28;20227;-81
2022/10/03 00:21:30;;;;;;;;;;;11.50;99.90;;;;;;5006304;28;20019;-82
2022/10/03 00:24:14;;;;;;;;;;;11.60;99.90;;;;;;5002976;28;19936;-80
2022/10/03 00:26:40;;;;;;;;;;;11.60;99.90;;;;;;4986899;28;19969;-81
2022/10/03 00:29:09;;;;;;;;;;;11.60;99.90;;;;;;4989319;28;19997;-80
2022/10/03 00:31:38;;;;;;;;;;;11.60;99.90;;;;;;4988095;28;20123;-80
2022/10/03 00:34:27;;;;;;;;;;;11.60;99.90;;;;;;4988605;28;20005;-82
2022/10/03 00:36:59;;;;;;;;;;;11.70;99.90;;;;;;4952287;28;20419;-81
2022/10/03 00:39:43;;;;;;;;;;;11.70;99.90;;;;;;4973384;28;20213;-79
2022/10/03 00:42:28;;;;;;;;;;;11.70;99.90;;;;;;4986040;28;19935;-81
2022/10/03 00:45:09;;;;;;;;;;;11.70;99.90;;;;;;5008965;28;19925;-81
2022/10/03 00:47:47;;;;;;;;;;;11.70;99.90;;;;;;4972598;28;19925;-79
2022/10/03 00:50:28;;;;;;;;;;;11.70;99.90;;;;;;4987995;28;19984;-79
2022/10/03 00:53:05;;;;;;;;;;;11.70;99.90;;;;;;4988438;28;19945;-80
2022/10/03 00:55:34;;;;;;;;;;;11.70;99.90;;;;;;4985488;28;19929;-80
2022/10/03 00:58:15;;;;;;;;;;;11.70;99.90;;;;;;4985980;28;19936;-82
2022/10/03 01:00:44;;;;;;;;;;;11.70;99.90;;;;;;4987548;28;19929;-81
2022/10/03 01:03:09;;;;;;;;;;;11.70;99.90;;;;;;4986776;28;20336;-81
2022/10/03 01:05:53;;;;;;;;;;;11.70;99.90;;;;;;4970442;28;20482;-78
2022/10/03 01:08:38;;;;;;;;;;;11.70;99.90;;;;;;5004129;28;19933;-79
2022/10/03 01:11:04;;;;;;;;;;;11.70;99.90;;;;;;4986552;28;20611;-79
2022/10/03 01:13:43;;;;;;;;;;;12.20;99.90;;;;;;4985272;28;19938;-78
2022/10/03 01:16:28;;;;;;;;;;;11.70;99.90;;;;;;4986459;28;19930;-80
2022/10/03 01:19:12;;;;;;;;;;;11.70;99.90;;;;;;4983166;28;19975;-81
2022/10/03 01:21:38;;;;;;;;;;;11.70;99.90;;;;;;4973999;28;20146;-81
2022/10/03 01:24:07;;;;;;;;;;;11.70;99.90;;;;;;4987068;28;20329;-80
2022/10/03 01:26:48;;;;;;;;;;;11.70;99.90;;;;;;5004316;28;19933;-81
2022/10/03 01:32:07;;;;;;;;;;;11.70;99.90;;;;;;4985504;28;19926;-81
2022/10/03 01:34:49;;;;;;;;;;;11.70;99.90;;;;;;4989594;28;19926;-80
2022/10/03 01:37:21;;;;;;;;;;;11.70;99.90;;;;;;4985403;28;19926;-78
2022/10/03 01:39:54;;;;;;;;;;;11.70;99.90;;;;;;4971424;28;20381;-80
2022/10/03 01:42:30;;;;;;;;;;;11.60;99.90;;;;;;4977015;28;20016;-80
2022/10/03 01:45:14;;;;;;;;;;;11.60;99.90;;;;;;5002759;28;19926;-78
2022/10/03 01:47:40;;;;;;;;;;;11.60;99.90;;;;;;5006188;28;19929;-78
2022/10/03 01:50:22;;;;;;;;;;;11.50;99.90;;;;;;4988314;28;20020;-78
2022/10/03 01:52:48;;;;;;;;;;;11.50;99.90;;;;;;4984924;28;20407;-79
2022/10/03 01:55:14;;;;;;;;;;;11.50;99.90;;;;;;4989775;28;19929;-79
2022/10/03 01:57:46;;;;;;;;;;;11.50;99.90;;;;;;4987542;28;19930;-79
2022/10/03 02:00:16;;;;;;;;;;;11.50;99.90;;;;;;4970227;28;19971;-80
2022/10/03 02:03:01;;;;;;;;;;;11.60;99.90;;;;;;5002166;28;19929;-80
2022/10/03 02:09:02;;;;;;;;;;;11.50;99.90;;;;;;5123066;22;20066;-80
2022/10/03 02:11:31;;;;;;;;;;;11.60;99.90;;;;;;5038616;28;19929;-80
2022/10/03 02:14:15;;;;;;;;;;;11.60;99.90;;;;;;5040919;28;20391;-80
2022/10/03 02:16:52;;;;;;;;;;;11.50;99.90;;;;;;5031423;28;19929;-80
2022/10/03 02:19:29;;;;;;;;;;;11.50;99.90;;;;;;5022434;28;20236;-79
2022/10/03 02:21:57;;;;;;;;;;;11.50;99.90;;;;;;5044464;28;20127;-79
2022/10/03 02:24:36;;;;;;;;;;;11.50;99.90;;;;;;5040383;28;20597;-80
2022/10/03 02:27:05;;;;;;;;;;;11.50;99.90;;;;;;5035604;28;19973;-82
2022/10/03 02:29:50;;;;;;;;;;;11.50;99.90;;;;;;5040802;28;19932;-81
2022/10/03 02:32:16;;;;;;;;;;;11.60;99.90;;;;;;5041968;28;19925;-79
2022/10/03 02:35:00;;;;;;;;;;;11.60;99.90;;;;;;5041332;28;19936;-79
2022/10/03 02:37:59;;;;;;;;;;;11.60;99.90;;;;;;5038451;28;20509;-80
2022/10/03 02:40:39;;;;;;;;;;;11.60;99.90;;;;;;5021531;28;19947;-80
2022/10/03 02:43:29;;;;;;;;;;;11.60;99.90;;;;;;5038761;28;19945;-79
2022/10/03 02:46:14;;;;;;;;;;;11.70;99.90;;;;;;5026373;28;20017;-79
2022/10/03 02:48:46;;;;;;;;;;;11.70;99.90;;;;;;5025992;28;19992;-80
2022/10/03 02:51:23;;;;;;;;;;;11.70;99.90;;;;;;5025626;28;19967;-80
2022/10/03 02:54:11;;;;;;;;;;;11.70;99.90;;;;;;5049724;28;19921;-81
2022/10/03 02:56:36;;;;;;;;;;;11.70;99.90;;;;;;5050344;28;20283;-82
2022/10/03 02:59:03;;;;;;;;;;;11.70;99.90;;;;;;5040029;28;19928;-79
2022/10/03 03:01:37;;;;;;;;;;;11.70;99.90;;;;;;5045487;28;19937;-82
2022/10/03 03:04:18;;;;;;;;;;;11.70;99.90;;;;;;5041632;28;19929;-81
2022/10/03 03:06:44;;;;;;;;;;;11.70;99.90;;;;;;5048149;28;19970;-81
2022/10/03 03:09:10;;;;;;;;;;;11.70;99.90;;;;;;5044202;28;19929;-83
2022/10/03 03:11:48;;;;;;;;;;;11.70;99.90;;;;;;5049242;28;19924;-81
2022/10/03 03:14:33;;;;;;;;;;;11.70;99.90;;;;;;5026151;28;19959;-82
2022/10/03 03:16:59;;;;;;;;;;;11.80;99.90;;;;;;5045758;28;19936;-81
2022/10/03 03:19:25;;;;;;;;;;;11.80;99.90;;;;;;5030711;28;19924;-81
2022/10/03 03:22:07;;;;;;;;;;;11.70;99.90;;;;;;5020808;28;19925;-83
2022/10/03 03:24:33;;;;;;;;;;;;;;;;;;5047259;28;20751;-82
2022/10/03 03:27:00;;;;;;;;;;;;;;;;;;5024588;28;19979;-86
2022/10/03 03:29:26;;;;;;;;;;;;;;;;;;5029132;28;19924;-84
2022/10/03 03:31:53;;;;;;;;;;;;;;;;;;5043153;28;19925;-82
2022/10/03 03:34:20;;;;;;;;;;;;;;;;;;5055182;28;20457;-81
2022/10/03 03:36:46;;;;;;;;;;;;;;;;;;5032271;28;19924;-82
2022/10/03 03:39:12;;;;;;;;;;;;;;;;;;5047269;28;19929;-83
2022/10/03 03:41:39;;;;;;;;;;;;;;;;;;5044668;28;19944;-85
2022/10/03 03:44:05;;;;;;;;;;;;;;;;;;5024790;28;20011;-87
2022/10/03 03:46:31;;;;;;;;;;;;;;;;;;5032340;28;20485;-85
2022/10/03 03:49:00;;;;;;;;;;;;;;;;;;5034204;28;20036;-87
2022/10/03 03:51:27;;;;;;;;;;;;;;;;;;5030980;28;20256;-84
2022/10/03 03:53:53;;;;;;;;;;;;;;;;;;5022169;28;19925;-82
2022/10/03 03:56:19;;;;;;;;;;;;;;;;;;5050372;28;19929;-82
2022/10/03 03:58:46;;;;;;;;;;;;;;;;;;5053445;28;19928;-84
2022/10/03 04:01:12;;;;;;;;;;;;;;;;;;5040420;28;19928;-83
2022/10/03 04:03:39;;;;;;;;;;;;;;;;;;5059246;28;20019;-83
2022/10/03 04:06:05;;;;;;;;;;;;;;;;;;5054132;28;19951;-82
2022/10/03 04:08:33;;;;;;;;;;;;;;;;;;5045047;28;20392;-83
2022/10/03 04:11:07;;;;;;;;;;;;;;;;;;5024239;28;20145;-83
2022/10/03 04:13:35;;;;;;;;;;;;;;;;;;5046508;28;19929;-83
2022/10/03 04:16:01;;;;;;;;;;;;;;;;;;5038631;28;19935;-82
2022/10/03 04:21:12;;;;;;;;;;;;;;;;;;5034370;28;19925;-81
2022/10/03 04:23:38;;;;;;;;;;;;;;;;;;5044440;28;19932;-83
2022/10/03 04:26:06;;;;;;;;;;;;;;;;;;5037848;28;19925;-81
2022/10/03 04:28:33;;;;;;;;;;;;;;;;;;5025932;28;19925;-81
2022/10/03 04:31:00;;;;;;;;;;;;;;;;;;5037630;28;19990;-82
2022/10/03 04:33:26;;;;;;;;;;;;;;;;;;5043671;28;19925;-82
2022/10/03 04:35:52;;;;;;;;;;;;;;;;;;5020536;28;19951;-83
2022/10/03 04:38:20;;;;;;;;;;;;;;;;;;5049581;28;19982;-82
2022/10/03 04:40:46;;;;;;;;;;;;;;;;;;5033088;28;19932;-83
2022/10/03 04:43:12;;;;;;;;;;;;;;;;;;5026249;28;19920;-82
2022/10/03 04:45:38;;;;;;;;;;;;;;;;;;5044416;28;19928;-81
2022/10/03 04:48:05;;;;;;;;;;;;;;;;;;5023659;28;19924;-83
2022/10/03 04:50:31;;;;;;;;;;;;;;;;;;5041756;28;20023;-81
2022/10/03 04:52:57;;;;;;;;;;;;;;;;;;5021411;28;19925;-83
2022/10/03 04:55:23;;;;;;;;;;;;;;;;;;5043358;28;19944;-82
2022/10/03 04:57:50;;;;;;;;;;;;;;;;;;5036248;28;19925;-81
2022/10/03 05:00:16;;;;;;;;;;;;;;;;;;5027820;28;19931;-84
2022/10/03 05:02:42;;;;;;;;;;;;;;;;;;5044503;28;19979;-83
2022/10/03 05:05:10;;;;;;;;;;;;;;;;;;5022757;28;20401;-84
2022/10/03 05:07:40;;;;;;;;;;;;;;;;;;5044427;28;19933;-83
2022/10/03 05:10:06;;;;;;;;;;;;;;;;;;5029092;28;19924;-83
2022/10/03 05:12:32;;;;;;;;;;;;;;;;;;5032028;28;19925;-84
2022/10/03 05:14:58;;;;;;;;;;;;;;;;;;5048549;28;19985;-83
2022/10/03 05:17:24;;;;;;;;;;;;;;;;;;5049244;28;19932;-85
2022/10/03 05:19:51;;;;;;;;;;;;;;;;;;5047548;28;19936;-81
2022/10/03 05:22:17;;;;;;;;;;;;;;;;;;5026931;28;19933;-84
2022/10/03 05:24:44;;;;;;;;;;;;;;;;;;5029828;28;20007;-82
2022/10/03 05:27:10;;;;;;;;;;;;;;;;;;5045963;28;19929;-84
2022/10/03 05:29:37;;;;;;;;;;;;;;;;;;5051456;28;19999;-83
2022/10/03 05:32:03;;;;;;;;;;;;;;;;;;5047602;28;19928;-82
2022/10/03 05:34:29;;;;;;;;;;;;;;;;;;5027132;28;19946;-82
2022/10/03 05:36:55;;;;;;;;;;;;;;;;;;5044801;28;19924;-83
2022/10/03 05:39:21;;;;;;;;;;;;;;;;;;5030545;28;19967;-82
2022/10/03 05:41:47;;;;;;;;;;;;;;;;;;5049417;28;19924;-83
2022/10/03 05:44:13;;;;;;;;;;;;;;;;;;5047870;28;19992;-83
2022/10/03 05:46:39;;;;;;;;;;;;;;;;;;5030863;28;19981;-84
2022/10/03 05:49:05;;;;;;;;;;;;;;;;;;5027100;28;19932;-81
2022/10/03 05:57:01;;;;;;;;;;;;;;;;;;5019991;28;19925;-80
2022/10/03 05:59:27;;;;;;;;;;;;;;;;;;5004890;28;19948;-80
2022/10/03 06:01:56;;;;;;;;;;;;;;;;;;5008035;28;19933;-80
2022/10/03 06:04:22;;;;;;;;;;;;;;;;;;5003493;28;19937;-80
2022/10/03 06:06:48;;;;;;;;;;;;;;;;;;5007005;28;20362;-80
2022/10/03 06:09:15;;;;;;;;;;;;;;;;;;5004627;28;20320;-83
2022/10/03 06:11:41;;;;;;;;;;;;;;;;;;5009433;28;19975;-83
2022/10/03 06:14:08;;;;;;;;;;;;;;;;;;5001789;28;19932;-84
2022/10/03 06:16:35;;;;;;;;;;;;;;;;;;5007118;28;19935;-82
2022/10/03 06:19:02;;;;;;;;;;;;;;;;;;5006321;28;19924;-82
2022/10/03 06:21:31;;;;;;;;;;;;;;;;;;5004303;28;20167;-83
2022/10/03 06:23:57;;;;;;;;;;;;;;;;;;5005293;28;19925;-82
2022/10/03 06:26:23;;;;;;;;;;;;;;;;;;4996466;28;19936;-82
2022/10/03 06:28:50;;;;;;;;;;;;;;;;;;5000745;28;20411;-82
2022/10/03 06:31:16;;;;;;;;;;;;;;;;;;5007077;28;19936;-81
2022/10/03 06:33:42;;;;;;;;;;;;;;;;;;4998786;28;19929;-84
2022/10/03 06:36:08;;;;;;;;;;;;;;;;;;5000721;28;19933;-83
2022/10/03 06:38:35;;;;;;;;;;;;;;;;;;4999670;28;19932;-83
2022/10/03 06:41:01;;;;;;;;;;;;;;;;;;4998766;28;20445;-83
2022/10/03 06:43:30;;;;;;;;;;;;;;;;;;5001289;28;19995;-83
2022/10/03 06:45:56;;;;;;;;;;;;;;;;;;5000160;28;19987;-84
2022/10/03 06:48:23;;;;;;;;;;;;;;;;;;5001287;28;19932;-82
2022/10/03 06:50:49;;;;;;;;;;;;;;;;;;5002844;28;19932;-82
2022/10/03 06:53:15;;;;;;;;;;;;;;;;;;5004342;28;19929;-84
2022/10/03 06:55:41;;;;;;;;;;;;;;;;;;5006131;28;19937;-84
2022/10/03 06:58:08;;;;;;;;;;;;;;;;;;5002387;28;20423;-83
2022/10/03 07:00:35;;;;;;;;;;;;;;;;;;5005791;28;20303;-83
2022/10/03 07:03:01;;;;;;;;;;;;;;;;;;5009304;28;19979;-82
2022/10/03 07:05:27;;;;;;;;;;;;;;;;;;4998858;28;19926;-83
2022/10/03 07:07:53;;;;;;;;;;;;;;;;;;5003258;28;19925;-83
2022/10/03 07:10:19;;;;;;;;;;;;;;;;;;5004117;28;20020;-84
2022/10/03 07:12:46;;;;;;;;;;;;;;;;;;5002244;28;19974;-82
2022/10/03 07:15:39;;;;;;;;;;;17.50;99.90;;;;;;5004073;28;19933;-82
2022/10/03 07:18:28;;;;;;;;;;;17.50;99.90;;;;;;4991811;28;19925;-82
2022/10/03 07:21:12;;;;;;;;;;;18.40;99.90;;;;;;4967227;28;19929;-84
2022/10/03 07:23:39;;;;;;;;;;;;;;;;;;5012969;28;19964;-83
2022/10/03 07:26:26;;;;;;;;;;;19.60;99.90;;;;;;4978333;28;19940;-84
2022/10/03 07:29:05;;;;;;;;;;;20.20;99.90;;;;;;4988359;28;20033;-83
2022/10/03 07:31:49;;;;;;;;;;;20.30;99.90;;;;;;5005471;28;20377;-81
2022/10/03 07:34:32;;;;;;;;;;;20.70;99.90;;;;;;4986830;28;20659;-83
2022/10/03 07:40:03;;;;;;;;;;;21.20;99.90;;;;;;5009764;28;20412;-82
2022/10/03 07:42:47;;;;;;;;;;;21.60;99.90;;;;;;5007214;28;19929;-83
2022/10/03 07:45:29;;;;;;;;;;;21.90;99.90;;;;;;5006774;28;19933;-83
2022/10/03 07:48:12;;;;;;;;;;;22.00;99.90;;;;;;4997142;28;19971;-79
2022/10/03 07:50:57;;;;;;;;;;;22.10;99.90;;;;;;5003015;28;19933;-78
2022/10/03 07:53:23;;;;;;;;;;;22.30;99.90;;;;;;5002184;28;20020;-80
2022/10/03 07:56:06;;;;;;;;;;;22.40;99.90;;;;;;5009294;28;20064;-80
2022/10/03 07:58:41;;;;;;;;;;;22.50;99.90;;;;;;5005292;28;20325;-82
2022/10/03 08:01:10;;;;;;;;;;;22.10;99.90;;;;;;5021246;28;20582;-82
2022/10/03 08:03:54;;;;;;;;;;;22.50;99.90;;;;;;4992870;28;19994;-82
2022/10/03 08:06:25;;;;;;;;;;;22.40;99.90;;;;;;5004470;28;20559;-81
2022/10/03 08:09:00;;;;;;;;;;;22.20;99.90;;;;;;4980886;28;19979;-80
2022/10/03 08:11:45;;;;;;;;;;;22.10;99.90;;;;;;5004647;28;19941;-81
2022/10/03 08:14:18;;;;;;;;;;;21.90;99.90;;;;;;5006821;28;21360;-80
2022/10/03 08:16:44;;;;;;;;;;;21.40;99.90;;;;;;4994100;28;20466;-82
2022/10/03 08:19:13;;;;;;;;;;;20.80;99.90;;;;;;5005990;28;19933;-81
2022/10/03 08:21:54;;;;;;;;;;;20.10;99.90;;;;;;5007476;28;19940;-81
2022/10/03 08:24:31;;;;;;;;;;;19.60;99.90;;;;;;5007462;28;19925;-80
2022/10/03 08:27:03;;;;;;;;;;;19.00;99.90;;;;;;5005804;28;20664;-80
2022/10/03 08:29:29;;;;;;;;;;;18.60;99.90;;;;;;5009209;28;20020;-81
2022/10/03 08:32:14;;;;;;;;;;;18.30;99.90;;;;;;5007932;28;19983;-80
2022/10/03 08:34:43;;;;;;;;;;;18.00;99.90;;;;;;5007390;28;19929;-80
2022/10/03 08:37:24;;;;;;;;;;;17.80;99.90;;;;;;5006684;28;19937;-80
2022/10/03 08:40:01;;;;;;;;;;;17.70;99.90;;;;;;5007376;28;20016;-79
2022/10/03 08:42:27;;;;;;;;;;;17.70;99.90;;;;;;4984094;28;19933;-81
2022/10/03 08:45:03;;;;;;;;;;;17.60;99.90;;;;;;5009234;28;19929;-82
2022/10/03 08:47:37;;;;;;;;;;;17.60;99.90;;;;;;5009951;28;19965;-84
2022/10/03 08:50:21;;;;;;;;;;;17.60;99.90;;;;;;5007448;28;19932;-81
2022/10/03 08:52:50;;;;;;;;;;;17.50;99.90;;;;;;5011213;28;19928;-81
2022/10/03 08:55:16;;;;;;;;;;;17.50;99.90;;;;;;5022362;28;20055;-79
2022/10/03 08:57:45;;;;;;;;;;;17.50;99.90;;;;;;5006938;28;20015;-82
2022/10/03 09:00:21;;;;;;;;;;;17.50;99.90;;;;;;5002777;28;19929;-80
2022/10/03 09:02:50;;;;;;;;;;;17.60;99.90;;;;;;5007582;28;20002;-83
2022/10/03 09:05:45;;;;;;;;;;;17.70;99.90;;;;;;5000012;28;19995;-81
2022/10/03 09:08:35;;;;;;;;;;;17.70;99.90;;;;;;4999585;28;19925;-83
2022/10/03 09:11:07;;;;;;;;;;;17.80;99.90;;;;;;5007179;28;20008;-81
2022/10/03 09:13:45;;;;;;;;;;;17.70;99.90;;;;;;4999142;28;19936;-80
2022/10/03 09:16:30;;;;;;;;;;;17.60;99.90;;;;;;5001248;28;19925;-83
2022/10/03 09:19:08;;;;;;;;;;;17.60;99.90;;;;;;4994768;28;20596;-83
2022/10/03 09:21:49;;;;;;;;;;;17.60;99.90;;;;;;5006428;28;19929;-81
2022/10/03 09:24:17;;;;;;;;;;;17.50;99.90;;;;;;4990977;28;19925;-82
2022/10/03 09:27:06;;;;;;;;;;;17.50;99.90;;;;;;5005901;28;19925;-81
2022/10/03 09:29:41;;;;;;;;;;;17.50;99.90;;;;;;4990509;28;20453;-83
2022/10/03 09:32:27;;;;;;;;;;;17.50;99.90;;;;;;5007280;28;19931;-82
2022/10/03 09:35:11;;;;;;;;;;;17.50;99.90;;;;;;4992062;28;19925;-83
2022/10/03 09:37:56;;;;;;;;;;;17.50;99.90;;;;;;5005176;28;20003;-83
2022/10/03 09:40:35;;;;;;;;;;;17.50;99.90;;;;;;5001905;28;20419;-81
2022/10/03 09:43:20;;;;;;;;;;;17.60;99.90;;;;;;4998467;28;20028;-83
2022/10/03 09:46:05;;;;;;;;;;;17.60;99.90;;;;;;4996185;28;20350;-80
2022/10/03 09:48:49;;;;;;;;;;;17.60;99.90;;;;;;5011499;28;19929;-79
2022/10/03 09:51:32;;;;;;;;;;;17.70;99.90;;;;;;5006154;28;20020;-79
2022/10/03 09:54:16;;;;;;;;;;;17.70;99.90;;;;;;5019057;28;19924;-81
2022/10/03 09:56:54;;;;;;;;;;;17.70;99.90;;;;;;4996401;28;19980;-81
2022/10/03 09:59:35;;;;;;;;;;;17.70;99.90;;;;;;5005076;28;19971;-78
2022/10/03 10:02:20;;;;;;;;;;;17.80;99.90;;;;;;5002667;28;19967;-81
2022/10/03 10:04:48;;;;;;;;;;;17.70;99.90;;;;;;5002540;28;19933;-80
2022/10/03 10:07:23;;;;;;;;;;;17.70;99.90;;;;;;5003736;28;19936;-81
2022/10/03 10:10:08;;;;;;;;;;;17.70;99.90;;;;;;5002136;28;19937;-81
2022/10/03 10:12:37;;;;;;;;;;;17.70;99.90;;;;;;5021980;28;20068;-80
2022/10/03 10:15:15;;;;;;;;;;;17.60;99.90;;;;;;5001520;28;19925;-79
2022/10/03 10:18:00;;;;;;;;;;;17.50;99.90;;;;;;5020638;28;19933;-82
2022/10/03 10:20:32;;;;;;;;;;;17.40;99.90;;;;;;4996947;28;20017;-81
2022/10/03 10:23:09;;;;;;;;;;;17.30;99.90;;;;;;5002809;28;19978;-80
2022/10/03 10:25:46;;;;;;;;;;;17.30;99.90;;;;;;5008434;28;19937;-80
2022/10/03 10:28:20;;;;;;;;;;;17.30;99.90;;;;;;4980815;28;19925;-81
2022/10/03 10:31:04;;;;;;;;;;;17.30;99.90;;;;;;5016442;28;19933;-80
2022/10/03 10:33:29;;;;;;;;;;;17.40;99.90;;;;;;5002906;28;20494;-81
2022/10/03 10:36:14;;;;;;;;;;;17.50;99.90;;;;;;5000356;28;19933;-81
2022/10/03 10:38:43;;;;;;;;;;;17.50;99.90;;;;;;4985939;28;19937;-79
2022/10/03 10:41:27;;;;;;;;;;;17.60;99.90;;;;;;4998001;28;19929;-80
2022/10/03 10:44:12;;;;;;;;;;;17.70;99.90;;;;;;4989757;28;20631;-80
2022/10/03 10:46:41;;;;;;;;;;;17.80;99.90;;;;;;5003816;28;20197;-80
2022/10/03 10:49:25;;;;;;;;;;;17.70;99.90;;;;;;4988507;28;19933;-80
2022/10/03 10:52:20;;;;;;;;;;;17.80;99.90;;;;;;4995206;28;19925;-79
2022/10/03 10:54:52;;;;;;;;;;;17.90;99.90;;;;;;4950606;28;20013;-80
2022/10/03 10:57:39;;;;;;;;;;;17.90;99.90;;;;;;4984424;28;19925;-84
2022/10/03 11:00:17;;;;;;;;;;;17.80;99.90;;;;;;4985997;28;19932;-79
2022/10/03 11:02:46;;;;;;;;;;;17.80;99.90;;;;;;4986648;28;20381;-80
2022/10/03 11:05:33;;;;;;;;;;;17.90;99.90;;;;;;4975471;28;20448;-80
2022/10/03 11:08:02;;;;;;;;;;;17.90;99.90;;;;;;4984750;28;19969;-80
2022/10/03 11:10:33;;;;;;;;;;;17.90;99.90;;;;;;4978572;28;19926;-79
2022/10/03 11:13:17;;;;;;;;;;;18.00;99.90;;;;;;4992251;28;19925;-81
2022/10/03 11:15:49;;;;;;;;;;;18.00;99.90;;;;;;4997585;28;19929;-78
2022/10/03 11:18:15;;;;;;;;;;;18.00;99.90;;;;;;4990258;28;19925;-80
2022/10/03 11:21:04;;;;;;;;;;;17.90;99.90;;;;;;4990387;28;19933;-80
2022/10/03 11:24:08;;;;;;;;;;;17.80;99.90;;;;;;4988323;28;20028;-79
2022/10/03 11:27:00;;;;;;;;;;;17.80;99.90;;;;;;4927873;29;19933;-80
2022/10/03 11:29:52;;;;;;;;;;;17.80;99.90;;;;;;4899820;29;19942;-81
2022/10/03 11:32:27;;;;;;;;;;;17.80;99.90;;;;;;4960268;28;19930;-79
2022/10/03 11:34:56;;;;;;;;;;;17.80;99.90;;;;;;4977589;28;19973;-80
2022/10/03 11:37:28;;;;;;;;;;;17.70;99.90;;;;;;4978899;28;19930;-80
2022/10/03 11:40:06;;;;;;;;;;;17.70;99.90;;;;;;4989218;28;19933;-79
2022/10/03 11:42:49;;;;;;;;;;;17.70;99.90;;;;;;4989521;28;19936;-81
2022/10/03 11:45:33;;;;;;;;;;;17.60;99.90;;;;;;4995001;28;19968;-80
2022/10/03 11:48:18;;;;;;;;;;;17.50;99.90;;;;;;4988324;28;20447;-79
2022/10/03 11:50:48;;;;;;;;;;;17.50;99.90;;;;;;4982920;28;19956;-80
2022/10/03 11:53:14;;;;;;;;;;;17.40;99.90;;;;;;4989214;28;19929;-78
2022/10/03 11:55:42;;;;;;;;;;;17.30;99.90;;;;;;4992896;28;19929;-80
2022/10/03 11:58:33;;;;;;;;;;;17.20;99.90;;;;;;5001853;28;19935;-81
2022/10/03 12:01:09;;;;;;;;;;;17.20;99.90;;;;;;5004312;28;20846;-80
2022/10/03 12:03:39;;;;;;;;;;;17.10;99.90;;;;;;4991534;28;19932;-82
2022/10/03 12:08:57;;;;;;;;;;;17.20;99.90;;;;;;5006291;28;19964;-82
2022/10/03 12:11:46;;;;;;;;;;;17.10;99.90;;;;;;4999837;28;20387;-80
2022/10/03 12:14:18;;;;;;;;;;;17.00;99.90;;;;;;4989972;28;19929;-80
2022/10/03 12:16:52;;;;;;;;;;;16.80;99.90;;;;;;5007419;28;19936;-82
2022/10/03 12:19:29;;;;;;;;;;;16.90;99.90;;;;;;5018935;28;19929;-79
2022/10/03 12:22:08;;;;;;;;;;;16.80;99.90;;;;;;5003678;28;20352;-79
2022/10/03 12:24:36;;;;;;;;;;;16.90;99.90;;;;;;4990863;28;20476;-81
2022/10/03 12:27:11;;;;;;;;;;;16.90;99.90;;;;;;5004390;28;19931;-81
2022/10/03 12:29:38;;;;;;;;;;;16.90;99.90;;;;;;4989984;28;19933;-79
2022/10/03 12:32:04;;;;;;;;;;;16.90;99.90;;;;;;4990275;28;21526;-81
2022/10/03 12:34:33;;;;;;;;;;;17.00;99.90;;;;;;4990645;28;19929;-80
2022/10/03 12:37:18;;;;;;;;;;;17.00;99.90;;;;;;5006171;28;20302;-82
2022/10/03 12:39:47;;;;;;;;;;;17.10;99.90;;;;;;4999286;28;20026;-82
2022/10/03 12:42:25;;;;;;;;;;;17.10;99.90;;;;;;4991408;28;19925;-81
2022/10/03 12:44:51;;;;;;;;;;;17.10;99.90;;;;;;4987894;28;19925;-84
2022/10/03 12:47:25;;;;;;;;;;;17.20;99.90;;;;;;5000473;28;20467;-80
2022/10/03 12:50:00;;;;;;;;;;;17.20;99.90;;;;;;5004615;28;19925;-82
2022/10/03 12:52:29;;;;;;;;;;;17.20;99.90;;;;;;5002574;28;19929;-83
2022/10/03 12:55:10;;;;;;;;;;;17.20;99.90;;;;;;4989420;28;20058;-81
2022/10/03 12:58:01;;;;;;;;;;;17.20;99.90;;;;;;5021919;28;19964;-81
2022/10/03 13:00:32;;;;;;;;;;;17.30;99.90;;;;;;4989938;28;19929;-82
2022/10/03 13:03:16;;;;;;;;;;;17.40;99.90;;;;;;5003500;28;19936;-83
2022/10/03 13:05:58;;;;;;;;;;;17.40;99.90;;;;;;4974724;28;19936;-80
2022/10/03 13:08:27;;;;;;;;;;;17.40;99.90;;;;;;5006242;28;19935;-82
2022/10/03 13:11:07;;;;;;;;;;;17.40;99.90;;;;;;5005678;28;20047;-82
2022/10/03 13:13:51;;;;;;;;;;;17.40;99.90;;;;;;5003034;28;19933;-82
2022/10/03 13:16:18;;;;;;;;;;;17.30;99.90;;;;;;5002065;28;19928;-80
2022/10/03 13:18:49;;;;;;;;;;;17.30;99.90;;;;;;5006215;28;19925;-82
2022/10/03 13:21:25;;;;;;;;;;;17.30;99.90;;;;;;5004464;28;20022;-84
2022/10/03 13:24:05;;;;;;;;;;;17.20;99.90;;;;;;5005231;28;20391;-84
2022/10/03 13:26:41;;;;;;;;;;;17.20;99.90;;;;;;4988611;28;19925;-81
2022/10/03 13:29:13;;;;;;;;;;;17.20;99.90;;;;;;5005860;28;20343;-83
2022/10/03 13:31:47;;;;;;;;;;;17.20;99.90;;;;;;5006714;28;19925;-84
2022/10/03 13:34:17;;;;;;;;;;;17.10;99.90;;;;;;4980773;28;19952;-80
2022/10/03 13:36:54;;;;;;;;;;;17.10;99.90;;;;;;5005757;28;19975;-82
2022/10/03 13:39:22;;;;;;;;;;;17.10;99.90;;;;;;5008740;28;19932;-80
2022/10/03 13:42:01;;;;;;;;;;;17.00;99.90;;;;;;5001573;28;19929;-81
2022/10/03 13:44:41;;;;;;;;;;;17.00;99.90;;;;;;4999302;28;20337;-83
2022/10/03 13:47:16;;;;;;;;;;;16.90;99.90;;;;;;4998860;28;19979;-81
2022/10/03 13:49:51;;;;;;;;;;;16.90;99.90;;;;;;5005293;28;20580;-81
2022/10/03 13:52:31;;;;;;;;;;;16.90;99.90;;;;;;5005703;28;19926;-80
2022/10/03 13:55:07;;;;;;;;;;;16.90;99.90;;;;;;5013977;28;20408;-80
2022/10/03 13:57:51;;;;;;;;;;;16.90;99.90;;;;;;5005290;28;20380;-83
2022/10/03 14:00:22;;;;;;;;;;;17.00;99.90;;;;;;4998641;28;20015;-79
2022/10/03 14:03:10;;;;;;;;;;;16.90;99.90;;;;;;4990230;28;19925;-81
2022/10/03 14:05:50;;;;;;;;;;;16.80;99.90;;;;;;4990095;28;19944;-84
2022/10/03 14:08:42;;;;;;;;;;;16.90;99.90;;;;;;4997055;28;19983;-81
2022/10/03 14:11:17;;;;;;;;;;;16.80;99.90;;;;;;5021245;28;20007;-79
2022/10/03 14:14:04;;;;;;;;;;;16.80;99.90;;;;;;5001860;28;20036;-81
2022/10/03 14:16:32;;;;;;;;;;;16.80;99.90;;;;;;4999231;28;20047;-82
2022/10/03 14:19:01;;;;;;;;;;;16.70;99.90;;;;;;4987306;28;19929;-82
2022/10/03 14:21:28;;;;;;;;;;;16.70;99.90;;;;;;5002390;28;20463;-83
2022/10/03 14:24:13;;;;;;;;;;;16.60;99.90;;;;;;5001710;28;19941;-82
2022/10/03 14:26:58;;;;;;;;;;;16.60;99.90;;;;;;5001648;28;20253;-82
2022/10/03 14:29:36;;;;;;;;;;;16.50;99.90;;;;;;5008396;28;19928;-82
2022/10/03 14:32:17;;;;;;;;;;;16.50;99.90;;;;;;5010097;28;19935;-80
2022/10/03 14:34:52;;;;;;;;;;;16.40;99.90;;;;;;5003789;28;19959;-81
2022/10/03 14:37:38;;;;;;;;;;;16.30;99.90;;;;;;5005499;28;20315;-83
2022/10/03 14:40:15;;;;;;;;;;;16.30;99.90;;;;;;5001618;28;20023;-82
2022/10/03 14:42:47;;;;;;;;;;;16.30;99.90;;;;;;4985905;28;19948;-82
2022/10/03 14:45:16;;;;;;;;;;;16.30;99.90;;;;;;5003404;28;19929;-81
2022/10/03 14:47:46;;;;;;;;;;;16.20;99.90;;;;;;5007801;28;19925;-82
2022/10/03 14:50:17;;;;;;;;;;;16.30;99.90;;;;;;4992656;28;20040;-80
2022/10/03 14:52:43;;;;;;;;;;;16.30;99.90;;;;;;4992071;28;19928;-80
2022/10/03 14:55:17;;;;;;;;;;;16.30;99.90;;;;;;5006489;28;19983;-81
2022/10/03 14:57:45;;;;;;;;;;;16.30;99.90;;;;;;5012856;28;20312;-80
2022/10/03 15:00:37;;;;;;;;;;;16.50;99.90;;;;;;4991773;28;19929;-82
2022/10/03 15:03:15;;;;;;;;;;;16.30;99.90;;;;;;5017655;28;19936;-81
2022/10/03 15:06:00;;;;;;;;;;;16.30;99.90;;;;;;5006168;28;20020;-81
2022/10/03 15:08:31;;;;;;;;;;;16.30;99.90;;;;;;5000633;28;19934;-81
2022/10/03 15:10:57;;;;;;;;;;;16.30;99.90;;;;;;5003549;28;19994;-80
2022/10/03 15:13:24;;;;;;;;;;;16.30;99.90;;;;;;4962320;28;19925;-81
2022/10/03 15:15:51;;;;;;;;;;;16.30;99.90;;;;;;4991448;28;19932;-81
2022/10/03 15:18:19;;;;;;;;;;;16.30;99.90;;;;;;5006560;28;19926;-81
2022/10/03 15:20:46;;;;;;;;;;;16.30;99.90;;;;;;4993737;28;19933;-84
2022/10/03 15:23:22;;;;;;;;;;;16.30;99.90;;;;;;5002149;28;19925;-83
2022/10/03 15:25:52;;;;;;;;;;;16.30;99.90;;;;;;5007362;28;19928;-82
2022/10/03 15:28:21;;;;;;;;;;;16.20;99.90;;;;;;5009473;28;20028;-83
2022/10/03 15:31:02;;;;;;;;;;;16.20;99.90;;;;;;4907136;22;20052;-80
2022/10/03 15:33:33;;;;;;;;;;;16.20;99.90;;;;;;4993026;28;20474;-84
2022/10/03 15:36:15;;;;;;;;;;;16.20;99.90;;;;;;5000362;28;19937;-81
2022/10/03 15:38:42;;;;;;;;;;;16.10;99.90;;;;;;4995748;28;19933;-82
2022/10/03 15:41:11;;;;;;;;;;;16.10;99.90;;;;;;4996063;28;19936;-82
2022/10/03 15:43:43;;;;;;;;;;;16.00;99.90;;;;;;5003694;28;19929;-83
2022/10/03 15:46:30;;;;;;;;;;;16.00;99.90;;;;;;5005323;28;19929;-83
2022/10/03 15:48:57;;;;;;;;;;;16.00;99.90;;;;;;4988654;28;19947;-82
2022/10/03 15:51:29;;;;;;;;;;;16.00;99.90;;;;;;5007292;28;19933;-84